This is the latest recevied weather packets stored in our database for station/object AG1T-1. If no packets are shown the sender has not sent any weather packets the latest 10 day(s).
| Time | Temp. | Humidity | Pressure | Rain* | Wind** | Luminosity | Snow |
|---|---|---|---|---|---|---|---|
| 1777879203 | 10.56° C | 42% | 1013.3 hPa | 0 mm | - | 0 W/m² | - |
| 1777878603 | 10° C | 45% | 1013.3 hPa | 0 mm | - | 0 W/m² | - |
| 1777878003 | 10° C | 45% | 1013.3 hPa | 0 mm | - | 0 W/m² | - |
| 1777877403 | 10.56° C | 46% | 1013.3 hPa | 0 mm | - | 0 W/m² | - |
| 1777876803 | 10.56° C | 44% | 1013.4 hPa | 0 mm | - | 0 W/m² | - |
| 1777876203 | 11.11° C | 43% | 1013.5 hPa | 0 mm | - | 0 W/m² | - |
| 1777875603 | 11.67° C | 41% | 1013.5 hPa | 0 mm | - | 0 W/m² | - |
| 1777875003 | 11.67° C | 39% | 1013.5 hPa | 0 mm | - | 0 W/m² | - |
| 1777874403 | 11.67° C | 40% | 1013.6 hPa | 0 mm | - | 0 W/m² | - |
| 1777873803 | 11.67° C | 39% | 1013.6 hPa | 0 mm | - | 0 W/m² | - |
| 1777873203 | 11.67° C | 39% | 1013.7 hPa | 0 mm | - | 0 W/m² | - |
| 1777872603 | 11.67° C | 41% | 1013.7 hPa | 0 mm | - | 0 W/m² | - |
| 1777872003 | 11.67° C | 41% | 1013.7 hPa | 0 mm | - | 0 W/m² | - |
| 1777871403 | 12.22° C | 40% | 1013.8 hPa | 0 mm | - | 0 W/m² | - |
| 1777870803 | 12.22° C | 41% | 1013.9 hPa | 0 mm | - | 0 W/m² | - |
| 1777870203 | 11.67° C | 43% | 1014 hPa | 0 mm | - | 0 W/m² | - |
| 1777869603 | 11.67° C | 43% | 1013.9 hPa | 0 mm | - | 0 W/m² | - |
| 1777869003 | 12.22° C | 45% | 1013.9 hPa | 0 mm | - | 0 W/m² | - |
| 1777868403 | 13.33° C | 41% | 1013.9 hPa | 0 mm | - | 0 W/m² | - |
| 1777867803 | 13.89° C | 39% | 1013.8 hPa | 0 mm | - | 0 W/m² | - |
| 1777867203 | 14.44° C | 36% | 1013.7 hPa | 0 mm | - | 0 W/m² | - |
| 1777866603 | 15° C | 34% | 1013.7 hPa | 0 mm | - | 0 W/m² | - |
| 1777866003 | 15.56° C | 32% | 1013.7 hPa | 0 mm | - | 0 W/m² | - |
| 1777865403 | 15.56° C | 34% | 1013.5 hPa | 0 mm | - | 0 W/m² | - |
| 1777864804 | 15.56° C | 36% | 1013.5 hPa | 0 mm | - | 0 W/m² | - |
* Rain latest hour (hover to see other rain measurements)
** Current wind speed in m/s (hover to see current wind gust speed)